createdAt,value
2022-09-10T00:02:10.440Z,4.00
2022-09-10T00:07:12.915Z,3.50
2022-09-10T00:12:15.340Z,3.97
2022-09-10T00:17:17.811Z,2.83
2022-09-10T00:22:20.494Z,3.10
2022-09-10T00:27:23.346Z,2.97
2022-09-10T00:32:25.802Z,2.70
2022-09-10T00:37:28.199Z,2.83
2022-09-10T00:42:30.644Z,3.57
2022-09-10T00:47:37.391Z,3.13
2022-09-10T00:52:40.200Z,3.10
2022-09-10T00:57:44.796Z,3.17
2022-09-10T01:02:48.239Z,3.80
2022-09-10T01:07:51.061Z,4.77
2022-09-10T01:13:19.823Z,5.90
2022-09-10T01:19:00.440Z,6.90
2022-09-10T01:24:39.866Z,7.77
2022-09-10T01:29:55.875Z,8.40
2022-09-10T01:35:17.101Z,7.50
2022-09-10T01:40:29.664Z,6.20
2022-09-10T01:45:51.660Z,4.80
2022-09-10T01:51:10.580Z,4.23
2022-09-10T01:57:04.015Z,3.80
2022-09-10T02:02:31.058Z,3.83
2022-09-10T02:07:36.440Z,4.10
2022-09-10T02:12:40.157Z,4.10
2022-09-10T02:18:01.910Z,3.53
2022-09-10T02:23:06.383Z,3.53
2022-09-10T02:28:12.079Z,3.43
2022-09-10T02:33:16.520Z,3.10
2022-09-10T02:38:19.284Z,3.10
2022-09-10T02:43:21.828Z,3.67
2022-09-10T02:48:27.986Z,4.17
2022-09-10T02:53:32.651Z,4.93
2022-09-10T02:58:39.452Z,4.40
2022-09-10T03:03:43.111Z,3.67
2022-09-10T03:08:45.838Z,3.20
2022-09-10T03:13:48.357Z,3.20
2022-09-10T03:18:52.068Z,3.77
2022-09-10T03:23:56.876Z,3.50
2022-09-10T03:29:03.302Z,3.50
2022-09-10T03:34:12.920Z,3.80
2022-09-10T03:39:18.435Z,3.93
2022-09-10T03:44:21.012Z,3.70
2022-09-10T03:49:23.965Z,3.80
2022-09-10T03:54:26.449Z,3.63
2022-09-10T03:59:29.915Z,4.03
2022-09-10T04:04:37.448Z,4.20
2022-09-10T04:09:40.347Z,3.30
2022-09-10T04:14:45.457Z,3.90
2022-09-10T04:19:51.128Z,4.13
2022-09-10T04:24:53.726Z,4.27
2022-09-10T04:29:57.366Z,4.60
2022-09-10T04:35:02.935Z,4.10
2022-09-10T04:40:06.276Z,4.23
2022-09-10T04:45:11.953Z,4.03
2022-09-10T04:50:15.590Z,4.37
2022-09-10T04:55:40.229Z,14.77
2022-09-10T05:00:43.463Z,5.20
2022-09-10T05:05:48.033Z,4.70
2022-09-10T05:10:50.830Z,3.90
2022-09-10T05:15:53.447Z,5.23
2022-09-10T05:20:57.160Z,3.70
2022-09-10T05:25:59.939Z,2.77
2022-09-10T05:31:03.405Z,3.20
2022-09-10T05:36:09.380Z,6.00
2022-09-10T05:41:14.037Z,4.63
2022-09-10T05:46:24.380Z,8.03
2022-09-10T05:51:30.813Z,9.67
2022-09-10T05:56:38.148Z,5.00
2022-09-10T06:01:40.647Z,3.57
2022-09-10T06:06:43.170Z,2.60
2022-09-10T06:11:49.375Z,3.40
2022-09-10T06:16:54.816Z,2.70
2022-09-10T06:21:59.070Z,2.37
2022-09-10T06:27:02.915Z,4.43
2022-09-10T06:32:07.581Z,4.10
2022-09-10T06:37:10.276Z,2.77
2022-09-10T06:42:13.799Z,3.03
2022-09-10T06:48:25.365Z,1.87
2022-09-10T06:53:03.683Z,2.00
2022-09-10T06:58:06.738Z,1.80
2022-09-10T07:03:11.706Z,1.73
2022-09-10T07:08:20.502Z,1.80
2022-09-10T07:13:27.546Z,2.00
2022-09-10T07:18:31.276Z,2.20
2022-09-10T07:23:33.888Z,2.20
2022-09-10T07:28:37.684Z,2.20
2022-09-10T07:33:42.263Z,1.73
2022-09-10T07:38:45.328Z,2.27
2022-09-10T07:43:53.844Z,2.00
2022-09-10T07:49:01.457Z,2.70
2022-09-10T07:54:05.312Z,1.60
2022-09-10T07:59:15.220Z,1.60
2022-09-10T08:04:23.588Z,2.20
2022-09-10T08:09:28.079Z,1.50
2022-09-10T08:14:31.754Z,1.30
2022-09-10T08:19:34.362Z,2.17
2022-09-10T08:24:37.813Z,1.70
2022-09-10T08:29:40.446Z,1.00
2022-09-10T08:34:46.454Z,1.20
2022-09-10T08:39:49.718Z,1.10
2022-09-10T08:45:03.616Z,1.30
2022-09-10T08:50:20.253Z,1.33
2022-09-10T08:55:29.545Z,0.97
2022-09-10T09:00:39.183Z,1.17
2022-09-10T09:05:49.872Z,1.13
2022-09-10T09:11:07.193Z,0.80
2022-09-10T09:16:44.352Z,1.63
2022-09-10T09:21:54.624Z,1.07
2022-09-10T09:27:10.291Z,1.10
2022-09-10T09:32:20.535Z,1.03
2022-09-10T09:37:29.351Z,0.70
2022-09-10T09:43:09.552Z,1.10
2022-09-10T09:48:15.777Z,1.33
2022-09-10T09:53:25.520Z,1.00
2022-09-10T09:58:31.101Z,2.30
2022-09-10T10:04:03.055Z,2.40
2022-09-10T10:09:15.409Z,3.30
2022-09-10T10:14:20.814Z,1.80
2022-09-10T10:19:32.418Z,1.93
2022-09-10T10:24:35.198Z,5.10
2022-09-10T10:29:39.341Z,1.98
2022-09-10T10:34:47.954Z,2.33
2022-09-10T10:40:22.595Z,2.50
2022-09-10T10:45:58.748Z,1.80
2022-09-10T10:51:05.087Z,2.20
2022-09-10T10:56:17.304Z,4.90
2022-09-10T11:01:23.302Z,3.10
2022-09-10T11:06:31.954Z,2.20
2022-09-10T11:11:45.171Z,1.80
2022-09-10T11:16:58.628Z,1.70
2022-09-10T11:22:16.342Z,2.33
2022-09-10T11:27:41.778Z,1.83
2022-09-10T11:33:05.792Z,2.30
2022-09-10T11:38:26.419Z,1.98
2022-09-10T11:43:59.912Z,2.00
2022-09-10T11:49:26.835Z,1.80
2022-09-10T11:54:34.388Z,1.80
2022-09-10T12:00:01.140Z,1.60
2022-09-10T12:05:16.116Z,2.72
2022-09-10T12:10:53.408Z,1.45
2022-09-10T12:16:02.563Z,1.50
2022-09-10T12:21:16.474Z,1.48
2022-09-10T12:26:22.518Z,1.30
2022-09-10T12:31:24.999Z,1.10
2022-09-10T12:36:27.472Z,1.20
2022-09-10T12:41:29.942Z,1.20
2022-09-10T12:46:44.759Z,1.10
2022-09-10T12:51:50.516Z,0.82
2022-09-10T12:57:20.405Z,1.00
2022-09-10T13:02:30.999Z,1.05
2022-09-10T13:07:45.581Z,0.82
2022-09-10T13:12:51.241Z,0.95
2022-09-10T13:17:54.586Z,0.90
2022-09-10T13:23:09.110Z,0.88
2022-09-10T13:28:35.519Z,1.00
2022-09-10T13:33:56.044Z,1.20
2022-09-10T13:39:26.865Z,1.55
2022-09-10T13:44:45.294Z,1.00
2022-09-10T13:50:17.334Z,1.10
2022-09-10T13:55:26.600Z,1.20
2022-09-10T14:01:00.921Z,1.23
2022-09-10T14:06:16.966Z,1.30
2022-09-10T14:11:25.111Z,1.63
2022-09-10T14:16:38.756Z,1.50
2022-09-10T14:21:42.281Z,1.75
2022-09-10T14:27:06.856Z,2.08
2022-09-10T14:32:36.256Z,1.33
2022-09-10T14:37:38.799Z,2.83
2022-09-10T14:42:41.311Z,1.50
2022-09-10T14:47:52.357Z,1.45
2022-09-10T14:52:55.728Z,1.60
2022-09-10T14:57:59.433Z,1.60
2022-09-10T15:03:02.617Z,1.30
2022-09-10T15:08:05.166Z,1.50
2022-09-10T15:13:11.144Z,1.40
2022-09-10T15:18:14.608Z,2.00
2022-09-10T15:23:18.318Z,1.60
2022-09-10T15:28:21.082Z,1.10
2022-09-10T15:33:23.468Z,1.77
2022-09-10T15:38:25.953Z,1.30
2022-09-10T15:43:28.348Z,1.40
2022-09-10T15:48:33.571Z,1.77
2022-09-10T15:53:36.277Z,2.13
2022-09-10T15:58:39.636Z,2.53
2022-09-10T16:03:51.701Z,4.47
2022-09-10T16:08:57.528Z,4.63
2022-09-10T16:14:04.671Z,4.10
2022-09-10T16:19:07.466Z,4.47
2022-09-10T16:24:10.439Z,2.87
2022-09-10T16:29:15.622Z,4.23
2022-09-10T16:34:19.771Z,3.45
2022-09-10T16:39:22.238Z,2.88
2022-09-10T16:44:24.725Z,2.00
2022-09-10T16:49:27.432Z,2.87
2022-09-10T16:54:31.973Z,2.33
2022-09-10T16:59:35.536Z,3.50
2022-09-10T17:04:38.038Z,3.40
2022-09-10T17:09:40.454Z,4.47
2022-09-10T17:14:42.861Z,4.70
2022-09-10T17:19:45.327Z,3.40
2022-09-10T17:24:49.361Z,6.50
2022-09-10T17:29:51.734Z,12.23
2022-09-10T17:34:54.577Z,43.50
2022-09-10T17:39:57.046Z,30.43
2022-09-10T17:45:01.109Z,21.10
2022-09-10T17:50:03.838Z,21.10
2022-09-10T17:55:06.614Z,43.53
2022-09-10T18:00:10.464Z,23.10
2022-09-10T18:05:13.198Z,21.47
2022-09-10T18:10:16.263Z,16.13
2022-09-10T18:15:19.686Z,12.60
2022-09-10T18:20:25.765Z,9.73
2022-09-10T18:25:32.343Z,9.07
2022-09-10T18:30:34.724Z,6.80
2022-09-10T18:35:37.171Z,7.97
2022-09-10T18:40:39.573Z,8.63
2022-09-10T18:45:42.470Z,7.13
2022-09-10T18:50:44.895Z,7.87
2022-09-10T18:55:47.456Z,8.77
2022-09-10T19:00:50.358Z,8.27
2022-09-10T19:05:52.803Z,9.07
2022-09-10T19:10:59.155Z,10.37
2022-09-10T19:16:03.164Z,10.80
2022-09-10T19:21:05.922Z,10.20
2022-09-10T19:26:10.345Z,10.27
2022-09-10T19:31:15.665Z,8.70
2022-09-10T19:36:19.165Z,8.50
2022-09-10T19:41:33.964Z,7.60
2022-09-10T19:46:37.108Z,7.47
2022-09-10T19:51:43.797Z,7.23
2022-09-10T19:56:46.387Z,7.37
2022-09-10T20:01:49.123Z,7.43
2022-09-10T20:06:52.314Z,7.83
2022-09-10T20:11:54.704Z,8.10
2022-09-10T20:16:57.094Z,7.70
2022-09-10T20:21:59.508Z,8.10
2022-09-10T20:27:01.868Z,8.20
2022-09-10T20:32:04.458Z,7.53
2022-09-10T20:37:07.019Z,7.37
2022-09-10T20:42:09.952Z,8.77
2022-09-10T20:47:12.583Z,8.47
2022-09-10T20:52:14.968Z,9.13
2022-09-10T20:57:17.392Z,15.80
2022-09-10T21:02:20.322Z,18.27
2022-09-10T21:07:23.511Z,14.27
2022-09-10T21:12:25.955Z,15.53
2022-09-10T21:17:28.370Z,19.00
2022-09-10T21:22:30.986Z,21.77
2022-09-10T21:27:33.831Z,19.20
2022-09-10T21:32:36.285Z,14.50
2022-09-10T21:37:39.397Z,16.13
2022-09-10T21:42:41.815Z,13.13
2022-09-10T21:47:44.176Z,12.87
2022-09-10T21:52:46.569Z,14.03
2022-09-10T21:57:49.005Z,13.93
2022-09-10T22:02:51.979Z,12.53
2022-09-10T22:07:54.655Z,14.77
2022-09-10T22:12:57.320Z,14.20
2022-09-10T22:18:00.007Z,12.60
2022-09-10T22:23:03.583Z,12.53
2022-09-10T22:28:06.469Z,12.03
2022-09-10T22:33:08.937Z,11.27
2022-09-10T22:38:16.844Z,11.00
2022-09-10T22:43:21.948Z,12.00
2022-09-10T22:48:24.650Z,10.13
2022-09-10T22:53:26.984Z,11.60
2022-09-10T22:58:29.350Z,11.43
2022-09-10T23:03:32.330Z,12.47
2022-09-10T23:08:36.382Z,11.83
2022-09-10T23:13:39.432Z,11.40
2022-09-10T23:18:43.185Z,10.33
2022-09-10T23:23:48.181Z,10.53
2022-09-10T23:28:50.791Z,12.23
2022-09-10T23:33:55.915Z,11.80
2022-09-10T23:38:59.185Z,12.00
2022-09-10T23:44:01.794Z,10.30
2022-09-10T23:49:05.064Z,11.63
2022-09-10T23:54:08.849Z,10.87
2022-09-10T23:59:11.633Z,10.07
